sensor_id;sensor_type;location;lat;lon;timestamp;temperature;humidity
19039;DHT22;9652;49.014;12.052;2022-09-03T00:00:20;16.30;56.70
19039;DHT22;9652;49.014;12.052;2022-09-03T00:02:55;16.30;56.40
19039;DHT22;9652;49.014;12.052;2022-09-03T00:05:31;16.20;56.70
19039;DHT22;9652;49.014;12.052;2022-09-03T00:08:10;16.20;56.90
19039;DHT22;9652;49.014;12.052;2022-09-03T00:10:50;16.20;56.90
19039;DHT22;9652;49.014;12.052;2022-09-03T00:13:23;16.10;56.70
19039;DHT22;9652;49.014;12.052;2022-09-03T00:15:56;16.10;56.80
19039;DHT22;9652;49.014;12.052;2022-09-03T00:18:27;16.10;56.80
19039;DHT22;9652;49.014;12.052;2022-09-03T00:21:01;16.10;57.00
19039;DHT22;9652;49.014;12.052;2022-09-03T00:23:38;16.10;57.10
19039;DHT22;9652;49.014;12.052;2022-09-03T00:26:18;16.00;57.10
19039;DHT22;9652;49.014;12.052;2022-09-03T00:28:55;16.00;57.50
19039;DHT22;9652;49.014;12.052;2022-09-03T00:31:28;15.90;57.10
19039;DHT22;9652;49.014;12.052;2022-09-03T00:34:04;16.00;57.30
19039;DHT22;9652;49.014;12.052;2022-09-03T00:36:39;15.90;57.20
19039;DHT22;9652;49.014;12.052;2022-09-03T00:39:14;15.90;57.30
19039;DHT22;9652;49.014;12.052;2022-09-03T00:41:58;15.90;57.50
19039;DHT22;9652;49.014;12.052;2022-09-03T00:44:44;15.80;57.60
19039;DHT22;9652;49.014;12.052;2022-09-03T00:47:26;15.80;57.70
19039;DHT22;9652;49.014;12.052;2022-09-03T00:50:06;15.80;57.50
19039;DHT22;9652;49.014;12.052;2022-09-03T00:52:46;15.80;57.60
19039;DHT22;9652;49.014;12.052;2022-09-03T00:55:34;15.70;57.70
19039;DHT22;9652;49.014;12.052;2022-09-03T00:58:24;15.70;57.80
19039;DHT22;9652;49.014;12.052;2022-09-03T01:01:15;15.70;58.00
19039;DHT22;9652;49.014;12.052;2022-09-03T01:03:55;15.70;57.70
19039;DHT22;9652;49.014;12.052;2022-09-03T01:06:36;15.70;57.70
19039;DHT22;9652;49.014;12.052;2022-09-03T01:09:24;15.60;57.60
19039;DHT22;9652;49.014;12.052;2022-09-03T01:12:06;15.60;57.80
19039;DHT22;9652;49.014;12.052;2022-09-03T01:14:51;15.70;58.00
19039;DHT22;9652;49.014;12.052;2022-09-03T01:17:35;15.50;57.80
19039;DHT22;9652;49.014;12.052;2022-09-03T01:20:31;15.50;57.90
19039;DHT22;9652;49.014;12.052;2022-09-03T01:23:32;15.50;58.00
19039;DHT22;9652;49.014;12.052;2022-09-03T01:26:34;15.50;58.50
19039;DHT22;9652;49.014;12.052;2022-09-03T01:29:19;15.50;58.20
19039;DHT22;9652;49.014;12.052;2022-09-03T01:32:00;15.50;58.10
19039;DHT22;9652;49.014;12.052;2022-09-03T01:34:40;15.40;58.20
19039;DHT22;9652;49.014;12.052;2022-09-03T01:37:23;15.40;58.20
19039;DHT22;9652;49.014;12.052;2022-09-03T01:40:09;15.30;58.20
19039;DHT22;9652;49.014;12.052;2022-09-03T01:43:11;15.40;58.40
19039;DHT22;9652;49.014;12.052;2022-09-03T01:45:54;15.30;58.40
19039;DHT22;9652;49.014;12.052;2022-09-03T01:48:33;15.30;58.20
19039;DHT22;9652;49.014;12.052;2022-09-03T01:51:16;15.30;58.50
19039;DHT22;9652;49.014;12.052;2022-09-03T01:54:19;15.20;58.50
19039;DHT22;9652;49.014;12.052;2022-09-03T01:57:18;15.20;59.00
19039;DHT22;9652;49.014;12.052;2022-09-03T02:00:07;15.20;58.90
19039;DHT22;9652;49.014;12.052;2022-09-03T02:02:40;15.20;58.30
19039;DHT22;9652;49.014;12.052;2022-09-03T02:05:14;15.20;58.40
19039;DHT22;9652;49.014;12.052;2022-09-03T02:07:45;15.20;58.50
19039;DHT22;9652;49.014;12.052;2022-09-03T02:10:16;15.10;58.60
19039;DHT22;9652;49.014;12.052;2022-09-03T02:12:48;15.10;58.70
19039;DHT22;9652;49.014;12.052;2022-09-03T02:15:20;15.00;58.70
19039;DHT22;9652;49.014;12.052;2022-09-03T02:17:54;15.10;58.80
19039;DHT22;9652;49.014;12.052;2022-09-03T02:20:27;15.00;58.90
19039;DHT22;9652;49.014;12.052;2022-09-03T02:22:56;15.10;58.90
19039;DHT22;9652;49.014;12.052;2022-09-03T02:25:29;15.00;58.90
19039;DHT22;9652;49.014;12.052;2022-09-03T02:28:02;15.00;59.10
19039;DHT22;9652;49.014;12.052;2022-09-03T02:30:30;15.00;58.90
19039;DHT22;9652;49.014;12.052;2022-09-03T02:32:59;15.00;59.00
19039;DHT22;9652;49.014;12.052;2022-09-03T02:35:26;15.00;59.10
19039;DHT22;9652;49.014;12.052;2022-09-03T02:37:53;15.00;59.10
19039;DHT22;9652;49.014;12.052;2022-09-03T02:40:21;15.00;59.10
19039;DHT22;9652;49.014;12.052;2022-09-03T02:42:48;15.00;59.20
19039;DHT22;9652;49.014;12.052;2022-09-03T02:45:23;15.00;59.30
19039;DHT22;9652;49.014;12.052;2022-09-03T02:47:55;15.00;59.60
19039;DHT22;9652;49.014;12.052;2022-09-03T02:50:26;15.00;59.60
19039;DHT22;9652;49.014;12.052;2022-09-03T02:52:53;15.10;59.80
19039;DHT22;9652;49.014;12.052;2022-09-03T02:55:20;15.20;59.90
19039;DHT22;9652;49.014;12.052;2022-09-03T02:57:48;15.10;59.90
19039;DHT22;9652;49.014;12.052;2022-09-03T03:00:16;15.20;59.90
19039;DHT22;9652;49.014;12.052;2022-09-03T03:02:45;15.30;59.90
19039;DHT22;9652;49.014;12.052;2022-09-03T03:05:19;15.30;59.90
19039;DHT22;9652;49.014;12.052;2022-09-03T03:07:53;15.40;60.30
19039;DHT22;9652;49.014;12.052;2022-09-03T03:10:20;15.40;59.90
19039;DHT22;9652;49.014;12.052;2022-09-03T03:12:47;15.50;59.90
19039;DHT22;9652;49.014;12.052;2022-09-03T03:15:15;15.60;59.90
19039;DHT22;9652;49.014;12.052;2022-09-03T03:17:42;15.60;59.90
19039;DHT22;9652;49.014;12.052;2022-09-03T03:20:09;15.60;59.90
19039;DHT22;9652;49.014;12.052;2022-09-03T03:22:36;15.70;59.90
19039;DHT22;9652;49.014;12.052;2022-09-03T03:25:06;15.70;59.80
19039;DHT22;9652;49.014;12.052;2022-09-03T03:27:34;15.80;59.80
19039;DHT22;9652;49.014;12.052;2022-09-03T03:30:08;15.80;59.70
19039;DHT22;9652;49.014;12.052;2022-09-03T03:32:37;15.80;59.70
19039;DHT22;9652;49.014;12.052;2022-09-03T03:35:05;15.90;59.60
19039;DHT22;9652;49.014;12.052;2022-09-03T03:37:33;15.90;59.60
19039;DHT22;9652;49.014;12.052;2022-09-03T03:40:00;15.90;59.50
19039;DHT22;9652;49.014;12.052;2022-09-03T03:42:31;15.90;59.40
19039;DHT22;9652;49.014;12.052;2022-09-03T03:44:59;15.90;59.90
19039;DHT22;9652;49.014;12.052;2022-09-03T03:47:27;16.00;59.20
19039;DHT22;9652;49.014;12.052;2022-09-03T03:49:55;16.00;59.10
19039;DHT22;9652;49.014;12.052;2022-09-03T03:52:22;15.90;58.90
19039;DHT22;9652;49.014;12.052;2022-09-03T03:54:50;15.90;58.90
19039;DHT22;9652;49.014;12.052;2022-09-03T03:57:17;15.90;58.80
19039;DHT22;9652;49.014;12.052;2022-09-03T03:59:47;15.90;58.90
19039;DHT22;9652;49.014;12.052;2022-09-03T04:02:14;15.80;58.90
19039;DHT22;9652;49.014;12.052;2022-09-03T04:04:42;15.80;58.90
19039;DHT22;9652;49.014;12.052;2022-09-03T04:07:10;15.70;58.80
19039;DHT22;9652;49.014;12.052;2022-09-03T04:09:37;15.70;58.90
19039;DHT22;9652;49.014;12.052;2022-09-03T04:12:05;15.70;59.00
19039;DHT22;9652;49.014;12.052;2022-09-03T04:14:33;15.60;59.00
19039;DHT22;9652;49.014;12.052;2022-09-03T04:17:02;15.60;59.10
19039;DHT22;9652;49.014;12.052;2022-09-03T04:19:29;15.50;59.10
19039;DHT22;9652;49.014;12.052;2022-09-03T04:21:56;15.50;59.10
19039;DHT22;9652;49.014;12.052;2022-09-03T04:24:24;15.50;59.20
19039;DHT22;9652;49.014;12.052;2022-09-03T04:26:52;15.50;59.20
19039;DHT22;9652;49.014;12.052;2022-09-03T04:29:19;15.40;59.20
19039;DHT22;9652;49.014;12.052;2022-09-03T04:31:47;15.40;59.30
19039;DHT22;9652;49.014;12.052;2022-09-03T04:34:29;15.40;59.40
19039;DHT22;9652;49.014;12.052;2022-09-03T04:36:56;15.40;59.50
19039;DHT22;9652;49.014;12.052;2022-09-03T04:39:24;15.40;59.50
19039;DHT22;9652;49.014;12.052;2022-09-03T04:41:51;15.30;59.50
19039;DHT22;9652;49.014;12.052;2022-09-03T04:44:19;15.30;59.60
19039;DHT22;9652;49.014;12.052;2022-09-03T04:46:46;15.30;59.70
19039;DHT22;9652;49.014;12.052;2022-09-03T04:49:13;15.30;59.80
19039;DHT22;9652;49.014;12.052;2022-09-03T04:51:41;15.30;59.90
19039;DHT22;9652;49.014;12.052;2022-09-03T04:54:09;15.30;60.10
19039;DHT22;9652;49.014;12.052;2022-09-03T04:56:38;15.30;60.20
19039;DHT22;9652;49.014;12.052;2022-09-03T04:59:07;15.40;60.50
19039;DHT22;9652;49.014;12.052;2022-09-03T05:01:36;15.40;60.50
19039;DHT22;9652;49.014;12.052;2022-09-03T05:04:05;15.40;60.50
19039;DHT22;9652;49.014;12.052;2022-09-03T05:06:34;15.50;60.50
19039;DHT22;9652;49.014;12.052;2022-09-03T05:09:04;15.50;60.40
19039;DHT22;9652;49.014;12.052;2022-09-03T05:11:32;15.50;60.50
19039;DHT22;9652;49.014;12.052;2022-09-03T05:13:59;15.60;60.50
19039;DHT22;9652;49.014;12.052;2022-09-03T05:16:27;15.60;60.60
19039;DHT22;9652;49.014;12.052;2022-09-03T05:18:57;15.70;60.70
19039;DHT22;9652;49.014;12.052;2022-09-03T05:21:25;15.70;60.90
19039;DHT22;9652;49.014;12.052;2022-09-03T05:23:54;15.80;60.90
19039;DHT22;9652;49.014;12.052;2022-09-03T05:26:24;15.90;60.70
19039;DHT22;9652;49.014;12.052;2022-09-03T05:28:53;16.00;60.70
19039;DHT22;9652;49.014;12.052;2022-09-03T05:31:23;16.00;60.50
19039;DHT22;9652;49.014;12.052;2022-09-03T05:33:54;16.10;60.40
19039;DHT22;9652;49.014;12.052;2022-09-03T05:36:25;16.20;60.50
19039;DHT22;9652;49.014;12.052;2022-09-03T05:38:54;16.30;60.40
19039;DHT22;9652;49.014;12.052;2022-09-03T05:41:23;16.30;60.10
19039;DHT22;9652;49.014;12.052;2022-09-03T05:43:53;16.40;59.90
19039;DHT22;9652;49.014;12.052;2022-09-03T05:46:24;16.50;59.80
19039;DHT22;9652;49.014;12.052;2022-09-03T05:48:56;16.60;59.70
19039;DHT22;9652;49.014;12.052;2022-09-03T05:51:24;16.60;59.50
19039;DHT22;9652;49.014;12.052;2022-09-03T05:53:52;16.70;59.40
19039;DHT22;9652;49.014;12.052;2022-09-03T05:56:23;16.80;59.30
19039;DHT22;9652;49.014;12.052;2022-09-03T05:58:53;16.80;59.20
19039;DHT22;9652;49.014;12.052;2022-09-03T06:01:23;16.90;59.30
19039;DHT22;9652;49.014;12.052;2022-09-03T06:03:55;16.90;59.40
19039;DHT22;9652;49.014;12.052;2022-09-03T06:06:25;17.00;59.50
19039;DHT22;9652;49.014;12.052;2022-09-03T06:08:55;17.10;59.50
19039;DHT22;9652;49.014;12.052;2022-09-03T06:11:26;17.10;59.50
19039;DHT22;9652;49.014;12.052;2022-09-03T06:13:54;17.20;59.40
19039;DHT22;9652;49.014;12.052;2022-09-03T06:16:22;17.20;59.20
19039;DHT22;9652;49.014;12.052;2022-09-03T06:18:50;17.30;59.10
19039;DHT22;9652;49.014;12.052;2022-09-03T06:21:18;17.30;58.90
19039;DHT22;9652;49.014;12.052;2022-09-03T06:23:48;17.30;58.80
19039;DHT22;9652;49.014;12.052;2022-09-03T06:26:20;17.40;58.70
19039;DHT22;9652;49.014;12.052;2022-09-03T06:28:50;17.30;58.50
19039;DHT22;9652;49.014;12.052;2022-09-03T06:31:20;17.30;58.70
19039;DHT22;9652;49.014;12.052;2022-09-03T06:33:48;17.30;58.80
19039;DHT22;9652;49.014;12.052;2022-09-03T06:36:17;17.40;58.90
19039;DHT22;9652;49.014;12.052;2022-09-03T06:38:45;17.50;59.00
19039;DHT22;9652;49.014;12.052;2022-09-03T06:41:14;17.50;59.00
19039;DHT22;9652;49.014;12.052;2022-09-03T06:43:52;17.60;59.00
19039;DHT22;9652;49.014;12.052;2022-09-03T06:46:22;17.70;59.10
19039;DHT22;9652;49.014;12.052;2022-09-03T06:48:50;17.80;59.00
19039;DHT22;9652;49.014;12.052;2022-09-03T06:51:19;18.00;59.00
19039;DHT22;9652;49.014;12.052;2022-09-03T06:53:49;18.10;58.80
19039;DHT22;9652;49.014;12.052;2022-09-03T06:56:19;18.30;58.40
19039;DHT22;9652;49.014;12.052;2022-09-03T06:58:53;18.30;58.00
19039;DHT22;9652;49.014;12.052;2022-09-03T07:01:23;18.40;57.90
19039;DHT22;9652;49.014;12.052;2022-09-03T07:03:53;18.50;57.80
19039;DHT22;9652;49.014;12.052;2022-09-03T07:06:23;18.50;57.70
19039;DHT22;9652;49.014;12.052;2022-09-03T07:08:52;18.60;57.70
19039;DHT22;9652;49.014;12.052;2022-09-03T07:11:21;18.70;57.50
19039;DHT22;9652;49.014;12.052;2022-09-03T07:13:52;18.80;57.30
19039;DHT22;9652;49.014;12.052;2022-09-03T07:16:21;18.80;57.20
19039;DHT22;9652;49.014;12.052;2022-09-03T07:18:50;18.90;57.20
19039;DHT22;9652;49.014;12.052;2022-09-03T07:21:19;18.90;57.10
19039;DHT22;9652;49.014;12.052;2022-09-03T07:23:48;19.00;56.90
19039;DHT22;9652;49.014;12.052;2022-09-03T07:26:18;19.10;56.90
19039;DHT22;9652;49.014;12.052;2022-09-03T07:28:47;19.20;56.80
19039;DHT22;9652;49.014;12.052;2022-09-03T07:31:18;19.30;56.80
19039;DHT22;9652;49.014;12.052;2022-09-03T07:33:47;19.40;56.60
19039;DHT22;9652;49.014;12.052;2022-09-03T07:36:15;19.50;56.40
19039;DHT22;9652;49.014;12.052;2022-09-03T07:38:43;19.50;56.10
19039;DHT22;9652;49.014;12.052;2022-09-03T07:41:13;19.60;55.80
19039;DHT22;9652;49.014;12.052;2022-09-03T07:43:42;19.70;55.70
19039;DHT22;9652;49.014;12.052;2022-09-03T07:46:12;19.70;55.50
19039;DHT22;9652;49.014;12.052;2022-09-03T07:48:42;19.80;55.50
19039;DHT22;9652;49.014;12.052;2022-09-03T07:51:13;19.90;55.40
19039;DHT22;9652;49.014;12.052;2022-09-03T07:53:41;20.00;55.50
19039;DHT22;9652;49.014;12.052;2022-09-03T07:56:09;20.10;55.40
19039;DHT22;9652;49.014;12.052;2022-09-03T07:58:38;20.10;55.30
19039;DHT22;9652;49.014;12.052;2022-09-03T08:01:07;20.30;55.30
19039;DHT22;9652;49.014;12.052;2022-09-03T08:03:36;20.30;55.10
19039;DHT22;9652;49.014;12.052;2022-09-03T08:06:06;20.50;55.10
19039;DHT22;9652;49.014;12.052;2022-09-03T08:08:35;20.60;54.80
19039;DHT22;9652;49.014;12.052;2022-09-03T08:11:04;20.70;54.70
19039;DHT22;9652;49.014;12.052;2022-09-03T08:13:36;20.90;54.60
19039;DHT22;9652;49.014;12.052;2022-09-03T08:16:05;21.00;54.30
19039;DHT22;9652;49.014;12.052;2022-09-03T08:18:33;21.10;54.20
19039;DHT22;9652;49.014;12.052;2022-09-03T08:21:04;21.20;54.00
19039;DHT22;9652;49.014;12.052;2022-09-03T08:23:36;21.40;54.30
19039;DHT22;9652;49.014;12.052;2022-09-03T08:26:03;21.40;53.80
19039;DHT22;9652;49.014;12.052;2022-09-03T08:28:32;21.70;54.60
19039;DHT22;9652;49.014;12.052;2022-09-03T08:31:04;21.90;53.80
19039;DHT22;9652;49.014;12.052;2022-09-03T08:33:32;22.00;53.10
19039;DHT22;9652;49.014;12.052;2022-09-03T08:36:10;22.10;53.20
19039;DHT22;9652;49.014;12.052;2022-09-03T08:38:40;22.30;52.60
19039;DHT22;9652;49.014;12.052;2022-09-03T08:41:11;22.40;52.60
19039;DHT22;9652;49.014;12.052;2022-09-03T08:43:57;22.50;52.70
19039;DHT22;9652;49.014;12.052;2022-09-03T08:46:43;22.60;51.50
19039;DHT22;9652;49.014;12.052;2022-09-03T08:49:22;22.70;51.40
19039;DHT22;9652;49.014;12.052;2022-09-03T08:51:55;22.80;51.30
19039;DHT22;9652;49.014;12.052;2022-09-03T08:54:29;22.80;51.10
19039;DHT22;9652;49.014;12.052;2022-09-03T08:57:00;22.80;51.00
19039;DHT22;9652;49.014;12.052;2022-09-03T08:59:29;22.80;50.70
19039;DHT22;9652;49.014;12.052;2022-09-03T09:02:08;22.90;50.80
19039;DHT22;9652;49.014;12.052;2022-09-03T09:04:55;22.90;50.20
19039;DHT22;9652;49.014;12.052;2022-09-03T09:07:31;22.90;50.40
19039;DHT22;9652;49.014;12.052;2022-09-03T09:10:11;22.90;50.20
19039;DHT22;9652;49.014;12.052;2022-09-03T09:12:48;22.90;50.10
19039;DHT22;9652;49.014;12.052;2022-09-03T09:15:29;22.90;50.10
19039;DHT22;9652;49.014;12.052;2022-09-03T09:18:12;23.00;50.20
19039;DHT22;9652;49.014;12.052;2022-09-03T09:20:49;23.00;50.00
19039;DHT22;9652;49.014;12.052;2022-09-03T09:23:27;23.00;50.20
19039;DHT22;9652;49.014;12.052;2022-09-03T09:25:58;23.00;50.00
19039;DHT22;9652;49.014;12.052;2022-09-03T09:28:33;23.00;50.00
19039;DHT22;9652;49.014;12.052;2022-09-03T09:31:03;23.00;49.80
19039;DHT22;9652;49.014;12.052;2022-09-03T09:33:33;23.00;49.90
19039;DHT22;9652;49.014;12.052;2022-09-03T09:36:02;22.90;49.80
19039;DHT22;9652;49.014;12.052;2022-09-03T09:38:33;22.80;49.90
19039;DHT22;9652;49.014;12.052;2022-09-03T09:41:09;22.80;50.00
19039;DHT22;9652;49.014;12.052;2022-09-03T09:43:37;22.70;50.10
19039;DHT22;9652;49.014;12.052;2022-09-03T09:46:07;22.70;50.30
19039;DHT22;9652;49.014;12.052;2022-09-03T09:48:45;22.60;50.40
19039;DHT22;9652;49.014;12.052;2022-09-03T09:51:18;22.60;50.50
19039;DHT22;9652;49.014;12.052;2022-09-03T09:54:00;22.60;50.80
19039;DHT22;9652;49.014;12.052;2022-09-03T09:56:29;22.60;50.40
19039;DHT22;9652;49.014;12.052;2022-09-03T09:59:04;22.70;50.90
19039;DHT22;9652;49.014;12.052;2022-09-03T10:01:33;22.80;50.50
19039;DHT22;9652;49.014;12.052;2022-09-03T10:04:09;22.80;50.80
19039;DHT22;9652;49.014;12.052;2022-09-03T10:06:37;22.90;50.40
19039;DHT22;9652;49.014;12.052;2022-09-03T10:09:24;23.00;50.60
19039;DHT22;9652;49.014;12.052;2022-09-03T10:12:03;23.10;50.30
19039;DHT22;9652;49.014;12.052;2022-09-03T10:14:42;23.20;50.20
19039;DHT22;9652;49.014;12.052;2022-09-03T10:17:17;23.20;50.10
19039;DHT22;9652;49.014;12.052;2022-09-03T10:19:56;23.30;50.10
19039;DHT22;9652;49.014;12.052;2022-09-03T10:22:53;23.40;49.90
19039;DHT22;9652;49.014;12.052;2022-09-03T10:25:26;23.50;50.10
19039;DHT22;9652;49.014;12.052;2022-09-03T10:28:00;23.50;49.80
19039;DHT22;9652;49.014;12.052;2022-09-03T10:30:29;23.60;50.00
19039;DHT22;9652;49.014;12.052;2022-09-03T10:33:15;23.70;50.00
19039;DHT22;9652;49.014;12.052;2022-09-03T10:35:52;23.80;49.70
19039;DHT22;9652;49.014;12.052;2022-09-03T10:38:27;23.90;49.60
19039;DHT22;9652;49.014;12.052;2022-09-03T10:41:10;24.00;49.50
19039;DHT22;9652;49.014;12.052;2022-09-03T10:43:59;24.10;49.50
19039;DHT22;9652;49.014;12.052;2022-09-03T10:46:48;24.20;49.40
19039;DHT22;9652;49.014;12.052;2022-09-03T10:49:31;24.40;49.50
19039;DHT22;9652;49.014;12.052;2022-09-03T10:52:23;24.50;49.60
19039;DHT22;9652;49.014;12.052;2022-09-03T10:55:13;24.80;49.20
19039;DHT22;9652;49.014;12.052;2022-09-03T10:57:58;24.90;48.50
19039;DHT22;9652;49.014;12.052;2022-09-03T11:00:44;25.10;48.20
19039;DHT22;9652;49.014;12.052;2022-09-03T11:03:44;25.30;48.80
19039;DHT22;9652;49.014;12.052;2022-09-03T11:06:18;25.40;47.80
19039;DHT22;9652;49.014;12.052;2022-09-03T11:08:53;25.50;48.10
19039;DHT22;9652;49.014;12.052;2022-09-03T11:11:31;25.50;48.10
19039;DHT22;9652;49.014;12.052;2022-09-03T11:14:07;25.60;47.70
19039;DHT22;9652;49.014;12.052;2022-09-03T11:16:39;25.70;47.60
19039;DHT22;9652;49.014;12.052;2022-09-03T11:19:13;25.80;47.70
19039;DHT22;9652;49.014;12.052;2022-09-03T11:21:44;25.90;47.80
19039;DHT22;9652;49.014;12.052;2022-09-03T11:24:17;26.00;47.80
19039;DHT22;9652;49.014;12.052;2022-09-03T11:26:51;26.20;47.50
19039;DHT22;9652;49.014;12.052;2022-09-03T11:29:30;26.30;47.40
19039;DHT22;9652;49.014;12.052;2022-09-03T11:32:07;26.40;46.90
19039;DHT22;9652;49.014;12.052;2022-09-03T11:34:45;26.60;47.00
19039;DHT22;9652;49.014;12.052;2022-09-03T11:37:19;26.70;46.40
19039;DHT22;9652;49.014;12.052;2022-09-03T11:39:56;26.80;46.20
19039;DHT22;9652;49.014;12.052;2022-09-03T11:42:33;26.80;46.00
19039;DHT22;9652;49.014;12.052;2022-09-03T11:45:34;26.90;46.30
19039;DHT22;9652;49.014;12.052;2022-09-03T11:48:17;26.90;45.70
19039;DHT22;9652;49.014;12.052;2022-09-03T11:50:56;26.90;45.60
19039;DHT22;9652;49.014;12.052;2022-09-03T11:53:24;27.00;46.10
19039;DHT22;9652;49.014;12.052;2022-09-03T11:55:59;27.00;45.80
19039;DHT22;9652;49.014;12.052;2022-09-03T11:58:29;27.10;45.50
19039;DHT22;9652;49.014;12.052;2022-09-03T12:01:01;27.10;45.80
19039;DHT22;9652;49.014;12.052;2022-09-03T12:03:38;27.10;45.70
19039;DHT22;9652;49.014;12.052;2022-09-03T12:06:26;27.20;45.60
19039;DHT22;9652;49.014;12.052;2022-09-03T12:09:23;27.30;45.60
19039;DHT22;9652;49.014;12.052;2022-09-03T12:12:11;27.40;45.30
19039;DHT22;9652;49.014;12.052;2022-09-03T12:14:55;27.40;45.20
19039;DHT22;9652;49.014;12.052;2022-09-03T12:17:33;27.60;45.50
19039;DHT22;9652;49.014;12.052;2022-09-03T12:20:11;27.60;45.20
19039;DHT22;9652;49.014;12.052;2022-09-03T12:22:40;27.60;44.80
19039;DHT22;9652;49.014;12.052;2022-09-03T12:25:09;27.80;45.60
19039;DHT22;9652;49.014;12.052;2022-09-03T12:27:37;27.80;45.30
19039;DHT22;9652;49.014;12.052;2022-09-03T12:30:15;27.80;45.20
19039;DHT22;9652;49.014;12.052;2022-09-03T12:32:45;27.90;44.40
19039;DHT22;9652;49.014;12.052;2022-09-03T12:35:17;27.90;44.60
19039;DHT22;9652;49.014;12.052;2022-09-03T12:37:45;27.90;44.60
19039;DHT22;9652;49.014;12.052;2022-09-03T12:40:18;28.00;44.60
19039;DHT22;9652;49.014;12.052;2022-09-03T12:42:46;28.00;44.40
19039;DHT22;9652;49.014;12.052;2022-09-03T12:45:14;28.10;45.30
19039;DHT22;9652;49.014;12.052;2022-09-03T12:47:46;28.10;44.30
19039;DHT22;9652;49.014;12.052;2022-09-03T12:50:15;28.10;43.90
19039;DHT22;9652;49.014;12.052;2022-09-03T12:52:46;28.20;43.70
19039;DHT22;9652;49.014;12.052;2022-09-03T12:55:30;28.20;43.80
19039;DHT22;9652;49.014;12.052;2022-09-03T12:58:06;28.10;43.50
19039;DHT22;9652;49.014;12.052;2022-09-03T13:00:39;28.00;43.60
19039;DHT22;9652;49.014;12.052;2022-09-03T13:03:15;28.00;44.10
19039;DHT22;9652;49.014;12.052;2022-09-03T13:05:51;27.90;43.80
19039;DHT22;9652;49.014;12.052;2022-09-03T13:08:22;27.80;44.00
19039;DHT22;9652;49.014;12.052;2022-09-03T13:10:55;27.80;44.00
19039;DHT22;9652;49.014;12.052;2022-09-03T13:13:25;27.60;44.10
19039;DHT22;9652;49.014;12.052;2022-09-03T13:16:10;27.50;44.60
19039;DHT22;9652;49.014;12.052;2022-09-03T13:19:00;27.30;43.80
19039;DHT22;9652;49.014;12.052;2022-09-03T13:21:43;27.20;44.00
19039;DHT22;9652;49.014;12.052;2022-09-03T13:24:27;27.10;44.90
19039;DHT22;9652;49.014;12.052;2022-09-03T13:27:14;26.90;44.50
19039;DHT22;9652;49.014;12.052;2022-09-03T13:30:00;26.80;44.80
19039;DHT22;9652;49.014;12.052;2022-09-03T13:32:43;26.70;45.10
19039;DHT22;9652;49.014;12.052;2022-09-03T13:35:27;26.70;45.30
19039;DHT22;9652;49.014;12.052;2022-09-03T13:38:06;26.60;45.00
19039;DHT22;9652;49.014;12.052;2022-09-03T13:40:48;26.60;45.10
19039;DHT22;9652;49.014;12.052;2022-09-03T13:43:27;26.50;45.30
19039;DHT22;9652;49.014;12.052;2022-09-03T13:46:04;26.60;45.40
19039;DHT22;9652;49.014;12.052;2022-09-03T13:48:37;26.60;45.90
19039;DHT22;9652;49.014;12.052;2022-09-03T13:51:43;26.60;46.40
19039;DHT22;9652;49.014;12.052;2022-09-03T13:54:19;26.60;46.40
19039;DHT22;9652;49.014;12.052;2022-09-03T13:56:55;26.60;46.00
19039;DHT22;9652;49.014;12.052;2022-09-03T13:59:32;26.70;46.00
19039;DHT22;9652;49.014;12.052;2022-09-03T14:02:13;26.60;45.70
19039;DHT22;9652;49.014;12.052;2022-09-03T14:05:02;26.60;45.60
19039;DHT22;9652;49.014;12.052;2022-09-03T14:07:47;26.60;45.80
19039;DHT22;9652;49.014;12.052;2022-09-03T14:10:29;26.60;45.50
19039;DHT22;9652;49.014;12.052;2022-09-03T14:13:11;26.60;45.80
19039;DHT22;9652;49.014;12.052;2022-09-03T14:15:48;26.50;45.70
19039;DHT22;9652;49.014;12.052;2022-09-03T14:18:32;26.40;45.70
19039;DHT22;9652;49.014;12.052;2022-09-03T14:21:08;26.30;45.90
19039;DHT22;9652;49.014;12.052;2022-09-03T14:23:46;26.30;46.10
19039;DHT22;9652;49.014;12.052;2022-09-03T14:26:27;26.20;46.30
19039;DHT22;9652;49.014;12.052;2022-09-03T14:29:02;26.20;46.20
19039;DHT22;9652;49.014;12.052;2022-09-03T14:31:49;26.10;46.30
19039;DHT22;9652;49.014;12.052;2022-09-03T14:34:40;26.00;46.10
19039;DHT22;9652;49.014;12.052;2022-09-03T14:37:36;25.90;46.30
19039;DHT22;9652;49.014;12.052;2022-09-03T14:40:29;25.80;46.50
19039;DHT22;9652;49.014;12.052;2022-09-03T14:43:29;25.70;46.80
19039;DHT22;9652;49.014;12.052;2022-09-03T14:46:26;25.60;47.30
19039;DHT22;9652;49.014;12.052;2022-09-03T14:49:41;25.50;47.70
19039;DHT22;9652;49.014;12.052;2022-09-03T14:52:35;25.50;48.70
19039;DHT22;9652;49.014;12.052;2022-09-03T14:55:28;25.40;49.60
19039;DHT22;9652;49.014;12.052;2022-09-03T14:58:34;25.40;49.60
19039;DHT22;9652;49.014;12.052;2022-09-03T15:01:10;25.40;49.90
19039;DHT22;9652;49.014;12.052;2022-09-03T15:04:03;25.40;49.50
19039;DHT22;9652;49.014;12.052;2022-09-03T15:07:07;25.40;50.00
19039;DHT22;9652;49.014;12.052;2022-09-03T15:09:49;25.40;49.60
19039;DHT22;9652;49.014;12.052;2022-09-03T15:12:33;25.30;49.60
19039;DHT22;9652;49.014;12.052;2022-09-03T15:15:09;25.30;50.00
19039;DHT22;9652;49.014;12.052;2022-09-03T15:17:51;25.20;50.10
19039;DHT22;9652;49.014;12.052;2022-09-03T15:20:31;25.20;50.50
19039;DHT22;9652;49.014;12.052;2022-09-03T15:23:23;25.20;50.40
19039;DHT22;9652;49.014;12.052;2022-09-03T15:26:22;25.20;51.00
19039;DHT22;9652;49.014;12.052;2022-09-03T15:29:13;25.20;50.60
19039;DHT22;9652;49.014;12.052;2022-09-03T15:31:57;25.30;50.10
19039;DHT22;9652;49.014;12.052;2022-09-03T15:34:43;25.30;50.10
19039;DHT22;9652;49.014;12.052;2022-09-03T15:37:24;25.30;50.10
19039;DHT22;9652;49.014;12.052;2022-09-03T15:40:00;25.30;49.80
19039;DHT22;9652;49.014;12.052;2022-09-03T15:42:31;25.30;49.60
19039;DHT22;9652;49.014;12.052;2022-09-03T15:45:05;25.40;49.70
19039;DHT22;9652;49.014;12.052;2022-09-03T15:47:50;25.50;49.80
19039;DHT22;9652;49.014;12.052;2022-09-03T15:50:28;25.50;49.60
19039;DHT22;9652;49.014;12.052;2022-09-03T15:53:04;25.50;49.30
19039;DHT22;9652;49.014;12.052;2022-09-03T15:55:42;25.60;49.50
19039;DHT22;9652;49.014;12.052;2022-09-03T15:58:24;25.70;49.40
19039;DHT22;9652;49.014;12.052;2022-09-03T16:01:00;25.70;49.10
19039;DHT22;9652;49.014;12.052;2022-09-03T16:03:35;25.80;49.10
19039;DHT22;9652;49.014;12.052;2022-09-03T16:06:20;25.80;48.90
19039;DHT22;9652;49.014;12.052;2022-09-03T16:09:06;25.90;48.50
19039;DHT22;9652;49.014;12.052;2022-09-03T16:11:51;25.90;48.30
19039;DHT22;9652;49.014;12.052;2022-09-03T16:14:28;25.90;48.40
19039;DHT22;9652;49.014;12.052;2022-09-03T16:17:06;25.90;48.60
19039;DHT22;9652;49.014;12.052;2022-09-03T16:19:46;25.80;48.30
19039;DHT22;9652;49.014;12.052;2022-09-03T16:22:26;25.80;48.30